メインページ
METAR-TAF:

METAR-TAF

空港 :

コロール, Babelthuap Island, パラオ

ロマン・トメトゥチェル国際空港

緯度: 07-22N, 経度: 134-32E, 海抜: 54m

現時点の気象観測

当レポートは42分前の15:50(UTC)に作成
北/北西の風 3kt
気温 26°C
湿度 84%
気圧 1011 hPa
視程: 24.1km
高度1600ftの雲はほとんどない
高度12000ftの雲は散在している
高度30000ftの千切れ雲あり

METAR: PTRO 221550Z 33003KT 15SM FEW016 SCT120 BKN300 26/23 A2984

時間: 01:32 (16:32 UTC)

予報

当レポートは5時間12分前の11:20(UTC)に作成
予報は22日の 12時(UTC)から 23日の 12時(UTC)まで有効
変向風 5kt
視程: 10km
高度1600ftの雲はほとんどない
高度12000ftの雲は散在している
近辺でにわか雨

TAF: PTRO 221120Z 2212/2312 VRB05KT P6SM VCSH FEW016 SCT120

4,000以上の空港の気象観測と天気予報(METAR報とTAF報)

利用可能な観測所は地図上に黄色い丸と赤い丸で示す。

丸の上にカーソルを重ねると観測所名を参照できる。

次にクリックすると気象観測と天気予報を参照できる。

マップの切り替え:黒色「×」印の緑ボタンをクリックして拡大、「-」印の緑ボタンをクリックして縮小、緑色の三角印をクリックして隣りの地図に切り替え


METAR-TAF: